Time;durP1;ratioP1;P1;durP2;ratioP2;P2;SDS_P1;SDS_P2;PMS_P1;PMS_P2;Temp;Humidity;BMP_temperature;BMP_pressure;BME280_temperature;BME280_humidity;BME280_pressure;Samples;Min_cycle;Max_cycle;Signal;HPM_P1;HPM_P2
2023/01/19 00:00:25;;;;;;;16.92;8.20;;;3.50;85.70;;;;;;9176413;19;20014;-67
2023/01/19 00:03:29;;;;;;;18.65;8.27;;;3.50;85.70;;;;;;9171554;19;20054;-67
2023/01/19 00:06:30;;;;;;;19.27;8.30;;;3.50;85.70;;;;;;9175824;19;20026;-67
2023/01/19 00:09:37;;;;;;;15.02;7.63;;;3.40;85.60;;;;;;9174662;19;20019;-67
2023/01/19 00:12:38;;;;;;;13.40;7.40;;;3.40;85.60;;;;;;9182097;19;20026;-68
2023/01/19 00:15:42;;;;;;;14.68;7.95;;;3.40;85.60;;;;;;9181904;19;20022;-66
2023/01/19 00:18:44;;;;;;;18.48;8.30;;;3.40;85.60;;;;;;9183724;19;20025;-68
2023/01/19 00:21:48;;;;;;;15.48;7.25;;;3.40;85.60;;;;;;9183566;19;20025;-67
2023/01/19 00:24:49;;;;;;;16.40;8.02;;;3.40;86.20;;;;;;9182023;19;20025;-67
2023/01/19 00:27:53;;;;;;;12.48;7.78;;;3.30;85.60;;;;;;9183548;19;20543;-67
2023/01/19 00:30:54;;;;;;;13.02;7.88;;;3.30;85.50;;;;;;9183568;19;20018;-67
2023/01/19 00:33:58;;;;;;;12.05;7.75;;;3.30;85.60;;;;;;9183099;19;20494;-68
2023/01/19 00:37:01;;;;;;;19.38;7.45;;;3.30;85.60;;;;;;9180376;19;20018;-66
2023/01/19 00:40:06;;;;;;;12.68;8.27;;;3.20;85.60;;;;;;9182582;19;20021;-66
2023/01/19 00:43:07;;;;;;;15.38;10.43;;;3.20;85.60;;;;;;9181273;19;20017;-65
2023/01/19 00:46:11;;;;;;;15.27;8.77;;;3.20;85.70;;;;;;9182368;19;20357;-68
2023/01/19 00:49:13;;;;;;;19.25;9.05;;;3.20;86.30;;;;;;9180503;19;20010;-66
2023/01/19 00:52:16;;;;;;;17.73;9.93;;;3.20;85.80;;;;;;9182471;19;20037;-67
2023/01/19 00:55:18;;;;;;;18.52;9.65;;;3.10;85.70;;;;;;9181485;19;20010;-67
2023/01/19 00:58:22;;;;;;;17.27;9.65;;;3.10;85.70;;;;;;9182544;19;20023;-64
2023/01/19 01:01:23;;;;;;;15.25;9.30;;;3.10;85.80;;;;;;9182443;19;20027;-66
2023/01/19 01:04:47;;;;;;;19.02;10.73;;;3.10;85.80;;;;;;9178191;19;20018;-66
2023/01/19 01:07:49;;;;;;;15.27;9.95;;;3.00;85.80;;;;;;9181861;19;20039;-65
2023/01/19 01:10:53;;;;;;;16.60;9.13;;;3.00;85.90;;;;;;9180242;19;20483;-66
2023/01/19 01:13:55;;;;;;;18.48;9.30;;;3.00;85.90;;;;;;9182177;19;20086;-66
2023/01/19 01:16:59;;;;;;;20.33;9.05;;;3.00;86.00;;;;;;9178939;19;20025;-65
2023/01/19 01:20:03;;;;;;;16.58;9.40;;;3.00;86.00;;;;;;9181416;19;20015;-64
2023/01/19 01:23:06;;;;;;;14.07;8.75;;;3.00;86.00;;;;;;9180499;19;20353;-65
2023/01/19 01:26:08;;;;;;;18.45;9.48;;;3.00;86.00;;;;;;9181285;19;20103;-65
2023/01/19 01:29:12;;;;;;;;;;;3.00;86.00;;;;;;9182910;19;20014;-64
2023/01/19 01:32:14;;;;;;;14.63;9.23;;;3.00;86.00;;;;;;9181553;19;20213;-65
2023/01/19 01:35:18;;;;;;;15.93;8.77;;;3.00;86.00;;;;;;9179882;19;20022;-64
2023/01/19 01:38:19;;;;;;;16.20;9.93;;;2.90;86.00;;;;;;9181343;19;20040;-66
2023/01/19 01:41:24;;;;;;;16.02;9.50;;;2.90;86.00;;;;;;9181011;19;20014;-67
2023/01/19 01:44:52;;;;;;;15.85;9.30;;;2.90;86.10;;;;;;9179151;19;20021;-64
2023/01/19 01:48:07;;;;;;;20.00;10.23;;;2.90;86.20;;;;;;9180401;19;20026;-65
2023/01/19 01:51:25;;;;;;;16.60;9.27;;;2.90;86.20;;;;;;9180077;19;20022;-66
2023/01/19 01:54:31;;;;;;;19.55;10.07;;;2.90;86.20;;;;;;9180680;19;20007;-64
2023/01/19 01:57:39;;;;;;;18.35;10.75;;;2.90;86.30;;;;;;9180979;19;20503;-65
2023/01/19 02:04:03;;;;;;;18.27;9.98;;;2.90;86.30;;;;;;9175921;19;20048;-66
2023/01/19 02:13:50;;;;;;;18.10;9.95;;;3.00;86.30;;;;;;9180013;19;20014;-67
2023/01/19 02:16:51;;;;;;;19.90;10.30;;;3.00;86.30;;;;;;9176300;19;20021;-67
2023/01/19 02:19:56;;;;;;;20.98;10.88;;;3.00;86.40;;;;;;9177944;19;20018;-67
2023/01/19 02:23:02;;;;;;;23.17;11.67;;;3.00;86.50;;;;;;9179645;19;20483;-66
2023/01/19 02:26:08;;;;;;;23.85;12.32;;;3.00;86.50;;;;;;9179458;19;20480;-66
2023/01/19 02:29:16;;;;;;;23.67;10.73;;;3.00;86.50;;;;;;9179740;19;20007;-66
2023/01/19 02:32:20;;;;;;;20.33;12.13;;;3.00;86.50;;;;;;9178733;19;20396;-67
2023/01/19 02:35:23;;;;;;;28.50;12.48;;;3.00;86.50;;;;;;9175735;19;20376;-68
2023/01/19 02:38:27;;;;;;;27.13;11.10;;;3.10;86.60;;;;;;9179315;19;20014;-67
2023/01/19 02:41:35;;;;;;;21.77;11.13;;;3.00;86.60;;;;;;9176226;19;20021;-66
2023/01/19 02:44:42;;;;;;;21.48;11.60;;;3.10;86.70;;;;;;9179389;19;20014;-66
2023/01/19 02:47:49;;;;;;;22.23;12.75;;;3.10;86.70;;;;;;9178027;19;20032;-67
2023/01/19 02:50:59;;;;;;;20.45;11.05;;;3.10;86.70;;;;;;9178841;19;20006;-68
2023/01/19 02:54:11;;;;;;;19.25;12.13;;;3.10;86.70;;;;;;9178213;19;20017;-68
2023/01/19 02:57:31;;;;;;;20.52;11.95;;;3.10;86.70;;;;;;9175448;19;20037;-68
2023/01/19 03:00:55;;;;;;;24.00;11.20;;;3.10;86.70;;;;;;9179406;19;20454;-68
2023/01/19 03:04:37;;;;;;;24.77;10.95;;;3.20;86.80;;;;;;9171701;19;20010;-67
2023/01/19 03:08:02;;;;;;;24.00;11.77;;;3.20;86.80;;;;;;9176818;19;20483;-67
2023/01/19 03:11:09;;;;;;;22.33;10.38;;;3.20;86.80;;;;;;9174865;19;20476;-68
2023/01/19 03:14:17;;;;;;;22.10;11.75;;;3.20;86.80;;;;;;9177689;19;20020;-67
2023/01/19 03:17:21;;;;;;;20.83;11.35;;;3.20;86.80;;;;;;9173653;19;20613;-68
2023/01/19 03:20:27;;;;;;;27.38;11.07;;;3.20;86.90;;;;;;9177412;19;20021;-67
2023/01/19 03:23:35;;;;;;;21.15;11.30;;;3.20;86.90;;;;;;9177581;19;20018;-68
2023/01/19 03:26:44;;;;;;;19.55;11.10;;;3.30;87.00;;;;;;9177597;19;20448;-68
2023/01/19 03:30:14;;;;;;;20.40;10.80;;;3.20;87.00;;;;;;9177217;19;20010;-68
2023/01/19 03:33:27;;;;;;;18.40;9.90;;;3.30;87.00;;;;;;9175924;19;20023;-67
2023/01/19 03:36:33;;;;;;;15.43;9.75;;;3.30;87.00;;;;;;9174172;19;20348;-68
2023/01/19 03:39:34;;;;;;;15.55;9.90;;;3.30;87.00;;;;;;9176076;19;20014;-68
2023/01/19 03:42:39;;;;;;;;;;;3.30;87.00;;;;;;9177446;19;20022;-67
2023/01/19 03:45:43;;;;;;;14.18;9.05;;;3.30;87.00;;;;;;9178442;19;19923;-68
2023/01/19 03:48:47;;;;;;;11.15;8.15;;;3.40;87.50;;;;;;9184633;19;20025;-66
2023/01/19 03:51:49;;;;;;;12.32;7.93;;;3.40;87.00;;;;;;9184414;19;20028;-66
2023/01/19 03:54:52;;;;;;;12.23;7.43;;;3.30;87.00;;;;;;9183880;19;20018;-66
2023/01/19 03:57:54;;;;;;;10.02;6.95;;;3.40;87.00;;;;;;9184037;19;20034;-66
2023/01/19 04:00:57;;;;;;;10.60;6.18;;;3.40;87.00;;;;;;9183989;19;20041;-68
2023/01/19 04:03:59;;;;;;;11.05;6.25;;;3.30;86.90;;;;;;9179418;19;20011;-68
2023/01/19 04:07:03;;;;;;;8.57;6.05;;;3.30;86.90;;;;;;9183906;19;20021;-68
2023/01/19 04:10:05;;;;;;;10.82;6.75;;;3.30;86.90;;;;;;9182792;19;20014;-68
2023/01/19 04:13:08;;;;;;;9.70;5.75;;;3.30;86.90;;;;;;9184021;19;20011;-67
2023/01/19 04:16:10;;;;;;;14.00;6.60;;;3.30;86.90;;;;;;9181923;19;20542;-66
2023/01/19 04:19:14;;;;;;;9.05;6.70;;;3.20;87.00;;;;;;9183563;19;20025;-67
2023/01/19 04:22:15;;;;;;;8.82;6.20;;;3.20;87.00;;;;;;9183599;19;20101;-66
2023/01/19 04:25:19;;;;;;;7.38;5.65;;;3.20;86.90;;;;;;9183217;19;20022;-66
2023/01/19 04:28:21;;;;;;;8.40;6.00;;;3.20;87.00;;;;;;9182860;19;20034;-66
2023/01/19 04:31:24;;;;;;;8.95;6.45;;;3.20;86.90;;;;;;9183184;19;20402;-67
2023/01/19 04:34:26;;;;;;;6.40;4.90;;;3.20;86.90;;;;;;9180262;19;20018;-67
2023/01/19 04:37:29;;;;;;;8.30;5.97;;;3.20;86.90;;;;;;9180082;19;20014;-67
2023/01/19 04:40:31;;;;;;;8.10;5.40;;;3.20;87.00;;;;;;9182808;19;20014;-67
2023/01/19 04:43:34;;;;;;;7.18;5.43;;;3.10;86.90;;;;;;9182351;19;20116;-67
2023/01/19 04:46:36;;;;;;;8.30;4.95;;;3.10;86.90;;;;;;9182917;19;20010;-67
2023/01/19 04:49:39;;;;;;;6.90;4.78;;;3.10;86.90;;;;;;9181943;19;20010;-67
2023/01/19 04:52:41;;;;;;;7.15;5.50;;;3.10;87.00;;;;;;9182212;19;20026;-67
2023/01/19 04:55:45;;;;;;;9.25;4.68;;;3.10;87.00;;;;;;9178888;19;20019;-68
2023/01/19 04:58:47;;;;;;;9.73;5.18;;;3.10;87.00;;;;;;9181077;19;20030;-68
2023/01/19 05:01:50;;;;;;;11.48;5.82;;;3.10;87.10;;;;;;9182047;19;20480;-68
2023/01/19 05:04:52;;;;;;;7.78;4.75;;;3.10;87.00;;;;;;9177690;19;20025;-66
2023/01/19 05:07:55;;;;;;;4.35;3.78;;;3.10;87.10;;;;;;9181528;19;20022;-67
2023/01/19 05:10:57;;;;;;;6.63;4.35;;;3.10;87.10;;;;;;9179569;19;20021;-68
2023/01/19 05:14:00;;;;;;;9.63;4.00;;;3.10;87.10;;;;;;9182005;19;20018;-68
2023/01/19 05:17:02;;;;;;;7.07;4.78;;;3.10;87.10;;;;;;9179618;19;20021;-68
2023/01/19 05:20:08;;;;;;;6.20;4.15;;;3.10;87.10;;;;;;9181670;19;20752;-66
2023/01/19 05:23:09;;;;;;;7.82;3.90;;;3.10;87.10;;;;;;9181083;19;20378;-65
2023/01/19 05:26:13;;;;;;;10.02;4.57;;;3.10;87.10;;;;;;9181222;19;20344;-66
2023/01/19 05:29:14;;;;;;;11.32;5.03;;;3.10;87.20;;;;;;9179754;19;20455;-65
2023/01/19 05:32:18;;;;;;;7.90;3.85;;;3.10;87.20;;;;;;9178864;19;20014;-67
2023/01/19 05:35:19;;;;;;;8.07;4.70;;;3.10;87.20;;;;;;9179919;19;20043;-67
2023/01/19 05:38:38;;;;;;;5.38;3.67;;;3.10;87.30;;;;;;9180088;19;20018;-66
2023/01/19 05:41:40;;;;;;;6.28;3.35;;;3.10;87.30;;;;;;9180286;19;20033;-67
2023/01/19 05:44:44;;;;;;;10.57;3.75;;;3.10;87.30;;;;;;9179958;19;20425;-66
2023/01/19 05:47:45;;;;;;;20.05;3.70;;;3.10;87.30;;;;;;9179399;19;20019;-67
2023/01/19 05:50:50;;;;;;;12.52;3.20;;;3.20;87.40;;;;;;9180133;19;20026;-66
2023/01/19 05:53:52;;;;;;;7.15;3.22;;;3.20;87.40;;;;;;9178765;19;20022;-67
2023/01/19 05:56:56;;;;;;;17.23;4.40;;;3.20;87.40;;;;;;9178885;19;20018;-68
2023/01/19 05:59:58;;;;;;;7.05;2.40;;;3.20;87.50;;;;;;9180101;19;20041;-68
2023/01/19 06:03:01;;;;;;;7.75;2.28;;;3.20;87.50;;;;;;9175138;19;20014;-68
2023/01/19 06:06:04;;;;;;;8.32;2.47;;;3.20;87.50;;;;;;9179283;19;20029;-67
2023/01/19 06:09:07;;;;;;;11.88;2.28;;;3.30;87.60;;;;;;9178207;19;20018;-67
2023/01/19 06:12:09;;;;;;;9.07;3.05;;;3.30;87.60;;;;;;9175249;19;20021;-66
2023/01/19 06:15:13;;;;;;;14.43;2.88;;;3.30;87.60;;;;;;9176489;19;20038;-68
2023/01/19 06:18:14;;;;;;;11.65;2.40;;;3.40;87.70;;;;;;9178706;19;20022;-68
2023/01/19 06:21:18;;;;;;;19.50;3.08;;;3.40;87.70;;;;;;9178982;19;20352;-67
2023/01/19 06:24:19;;;;;;;13.15;3.17;;;3.40;87.70;;;;;;9178776;19;20006;-67
2023/01/19 06:27:23;;;;;;;10.63;1.95;;;3.40;87.70;;;;;;9175779;19;20014;-67
2023/01/19 06:30:25;;;;;;;11.05;1.95;;;3.50;87.80;;;;;;9179120;19;20053;-68
2023/01/19 06:33:29;;;;;;;19.58;2.35;;;3.50;87.80;;;;;;9179127;19;20022;-68
2023/01/19 06:36:31;;;;;;;10.07;2.15;;;3.50;87.80;;;;;;9177383;19;20074;-68
2023/01/19 06:39:36;;;;;;;12.27;1.77;;;3.60;87.90;;;;;;9178650;19;20006;-67
2023/01/19 06:42:38;;;;;;;11.75;2.30;;;3.60;87.90;;;;;;9178520;19;20090;-68
2023/01/19 06:45:41;;;;;;;13.38;2.13;;;3.60;87.90;;;;;;9177036;19;20014;-68
2023/01/19 06:48:46;;;;;;;14.40;1.73;;;3.70;88.00;;;;;;9178667;19;20340;-68
2023/01/19 06:51:50;;;;;;;9.05;2.08;;;3.70;87.90;;;;;;9176630;19;20356;-68
2023/01/19 06:54:51;;;;;;;9.35;1.52;;;3.70;87.90;;;;;;9177085;19;20527;-68
2023/01/19 06:57:57;;;;;;;13.85;1.98;;;3.70;87.90;;;;;;9170347;19;20372;-68
2023/01/19 07:01:05;;;;;;;8.70;2.17;;;3.80;87.90;;;;;;9177459;19;20114;-68
2023/01/19 07:04:12;;;;;;;12.18;1.80;;;3.80;87.90;;;;;;9173791;19;20026;-68
2023/01/19 07:07:15;;;;;;;12.85;2.55;;;3.80;88.00;;;;;;9177966;19;20021;-68
2023/01/19 07:10:19;;;;;;;12.00;1.77;;;3.80;88.00;;;;;;9175917;19;20029;-68
2023/01/19 07:13:20;;;;;;;12.38;2.00;;;3.90;88.00;;;;;;9175805;19;20006;-68
2023/01/19 07:16:24;;;;;;;14.90;2.28;;;3.90;88.00;;;;;;9167474;19;20014;-68
2023/01/19 07:19:25;;;;;;;10.55;1.50;;;3.90;88.10;;;;;;9162506;19;20361;-68
2023/01/19 07:22:29;;;;;;;7.75;1.35;;;4.00;88.00;;;;;;9159934;19;20014;-68
2023/01/19 07:25:30;;;;;;;9.60;1.75;;;4.00;88.00;;;;;;9162161;19;20571;-68
2023/01/19 07:28:35;;;;;;;17.98;1.83;;;4.00;88.00;;;;;;9164738;19;20460;-68
2023/01/19 07:31:37;;;;;;;12.17;2.43;;;4.00;88.00;;;;;;9165070;19;20015;-68
2023/01/19 07:34:41;;;;;;;;;;;4.00;88.00;;;;;;9163701;19;20496;-68
2023/01/19 07:37:42;;;;;;;7.90;1.50;;;4.10;88.10;;;;;;9161854;19;19929;-69
2023/01/19 07:40:46;;;;;;;16.35;1.92;;;4.10;87.90;;;;;;9162745;19;20019;-69
2023/01/19 07:43:50;;;;;;;10.07;1.90;;;4.00;87.90;;;;;;9162447;19;20018;-67
2023/01/19 07:46:53;;;;;;;6.55;1.98;;;4.10;88.00;;;;;;9168479;19;20042;-69
2023/01/19 07:49:55;;;;;;;10.38;2.03;;;4.10;88.10;;;;;;9161176;19;20025;-68
2023/01/19 07:53:04;;;;;;;12.25;2.10;;;4.10;88.10;;;;;;9162003;19;20440;-69
2023/01/19 07:56:06;;;;;;;10.57;1.83;;;4.10;88.10;;;;;;9168275;19;20043;-68
2023/01/19 07:59:10;;;;;;;;;;;4.10;88.10;;;;;;9172013;19;20026;-68
2023/01/19 08:02:11;;;;;;;11.57;2.33;;;4.10;88.10;;;;;;9165445;19;20628;-69
2023/01/19 08:05:16;;;;;;;14.18;1.92;;;4.10;88.00;;;;;;9168046;19;20006;-67
2023/01/19 08:08:18;;;;;;;11.65;1.88;;;4.10;88.00;;;;;;9169672;19;20883;-69
2023/01/19 08:11:22;;;;;;;19.00;2.47;;;4.10;88.00;;;;;;9165577;19;20019;-69
2023/01/19 08:14:23;;;;;;;14.68;1.92;;;4.10;88.00;;;;;;9169154;19;20045;-67
2023/01/19 08:17:27;;;;;;;11.38;1.42;;;4.20;88.10;;;;;;9167816;19;20018;-69
2023/01/19 08:20:30;;;;;;;15.15;2.00;;;4.20;88.10;;;;;;9169196;19;20548;-70
2023/01/19 08:23:33;;;;;;;7.90;1.75;;;4.20;88.10;;;;;;9170149;19;20026;-72
2023/01/19 08:26:35;;;;;;;15.10;2.10;;;4.20;88.10;;;;;;9170168;19;20033;-69
2023/01/19 08:29:39;;;;;;;19.35;2.50;;;4.20;88.10;;;;;;9167998;19;20831;-71
2023/01/19 08:32:40;;;;;;;13.38;1.80;;;4.20;88.20;;;;;;9170863;19;20023;-71
2023/01/19 08:35:49;;;;;;;11.98;1.75;;;4.20;88.20;;;;;;9175667;19;20017;-71
2023/01/19 08:38:51;;;;;;;15.88;2.45;;;4.20;88.20;;;;;;9174669;19;20023;-71
2023/01/19 08:41:55;;;;;;;13.85;2.28;;;4.20;88.20;;;;;;9176609;19;20022;-71
2023/01/19 08:44:56;;;;;;;15.85;1.65;;;4.30;88.20;;;;;;9181105;19;20015;-71
2023/01/19 08:48:02;;;;;;;16.17;2.10;;;4.30;88.30;;;;;;9173851;19;20021;-70
2023/01/19 08:51:03;;;;;;;10.63;1.70;;;4.30;88.30;;;;;;9174355;19;20022;-70
2023/01/19 08:54:07;;;;;;;15.13;2.42;;;4.30;88.30;;;;;;9175150;19;20018;-69
2023/01/19 08:57:09;;;;;;;9.75;1.83;;;4.30;88.30;;;;;;9165753;19;20762;-69
2023/01/19 09:00:13;;;;;;;14.75;2.13;;;4.40;88.30;;;;;;9168598;19;20037;-69
2023/01/19 09:03:14;;;;;;;25.02;3.10;;;4.40;88.30;;;;;;9164288;19;20018;-71
2023/01/19 09:06:18;;;;;;;14.90;2.47;;;4.40;88.30;;;;;;9161605;19;20010;-70
2023/01/19 09:09:19;;;;;;;19.92;2.53;;;4.40;88.30;;;;;;9161937;19;20018;-71
2023/01/19 09:12:23;;;;;;;10.80;1.92;;;4.40;88.30;;;;;;9169121;19;20034;-69
2023/01/19 09:15:25;;;;;;;19.02;2.38;;;4.40;88.30;;;;;;9169105;19;20022;-70
2023/01/19 09:18:28;;;;;;;18.15;3.60;;;4.50;88.40;;;;;;9171013;19;20019;-68
2023/01/19 09:21:30;;;;;;;10.93;2.53;;;4.50;88.40;;;;;;9173664;19;20018;-67
2023/01/19 09:24:34;;;;;;;12.73;2.35;;;4.50;88.40;;;;;;9173044;19;20026;-68
2023/01/19 09:27:35;;;;;;;11.00;2.65;;;4.50;88.40;;;;;;9168605;19;20014;-66
2023/01/19 09:30:40;;;;;;;12.38;2.15;;;4.50;88.40;;;;;;9169134;19;20018;-67
2023/01/19 09:33:42;;;;;;;10.43;1.63;;;4.50;88.40;;;;;;9166065;19;20028;-68
2023/01/19 09:36:46;;;;;;;13.98;2.22;;;4.50;88.40;;;;;;9167049;19;20026;-67
2023/01/19 09:39:47;;;;;;;18.10;1.80;;;4.60;88.40;;;;;;9170726;19;20018;-67
2023/01/19 09:42:58;;;;;;;8.45;2.28;;;4.60;88.40;;;;;;9173657;19;20017;-68
2023/01/19 09:46:03;;;;;;;18.13;2.08;;;4.60;88.40;;;;;;9174199;19;20114;-67
2023/01/19 09:49:14;;;;;;;16.95;2.20;;;4.60;88.50;;;;;;9169328;19;20356;-67
2023/01/19 09:52:17;;;;;;;16.25;1.83;;;4.60;88.50;;;;;;9168520;19;20021;-67
2023/01/19 09:55:25;;;;;;;14.90;1.92;;;4.70;88.60;;;;;;9168367;19;20415;-68
2023/01/19 09:58:27;;;;;;;14.95;1.88;;;4.70;88.60;;;;;;9166503;19;20022;-67
2023/01/19 10:01:45;;;;;;;21.75;1.67;;;4.70;88.60;;;;;;9165870;19;20585;-68
2023/01/19 10:04:54;;;;;;;29.10;2.65;;;4.70;88.70;;;;;;9162396;19;20023;-68
2023/01/19 10:08:15;;;;;;;15.00;1.60;;;4.80;88.60;;;;;;9168534;19;20029;-68
2023/01/19 10:11:31;;;;;;;14.38;1.88;;;4.80;88.60;;;;;;9162420;19;20459;-68
2023/01/19 10:15:20;;;;;;;21.33;2.65;;;4.90;88.70;;;;;;9174001;19;20029;-66
2023/01/19 10:18:33;;;;;;;11.05;2.03;;;5.00;88.80;;;;;;9164344;19;20014;-67
2023/01/19 10:21:42;;;;;;;22.65;1.80;;;5.10;88.80;;;;;;9168624;19;20011;-68
2023/01/19 10:24:45;;;;;;;9.88;2.45;;;5.10;88.90;;;;;;9166858;19;21507;-68
2023/01/19 10:27:48;;;;;;;22.88;2.45;;;5.20;89.00;;;;;;9169513;19;20007;-68
2023/01/19 10:30:53;;;;;;;26.40;3.53;;;5.40;89.10;;;;;;9172505;19;20019;-68
2023/01/19 10:33:57;;;;;;;9.90;2.20;;;5.40;89.00;;;;;;9176653;19;20026;-68
2023/01/19 10:37:04;;;;;;;17.30;2.28;;;5.60;89.10;;;;;;9176689;19;20022;-68
2023/01/19 10:40:08;;;;;;;18.73;2.25;;;5.70;89.10;;;;;;9178694;19;20011;-68
2023/01/19 10:43:32;;;;;;;12.13;2.05;;;5.70;89.00;;;;;;9178709;19;20013;-68
2023/01/19 10:46:40;;;;;;;16.05;2.47;;;5.80;89.00;;;;;;9176792;19;20352;-68
2023/01/19 10:49:43;;;;;;;18.42;2.22;;;5.90;88.90;;;;;;9172959;19;20094;-68
2023/01/19 10:52:50;;;;;;;13.57;1.83;;;6.00;88.80;;;;;;9178803;19;20712;-68
2023/01/19 10:56:22;;;;;;;16.88;2.53;;;6.00;88.70;;;;;;9175419;19;20018;-68
2023/01/19 10:59:33;;;;;;;11.90;2.28;;;6.10;88.70;;;;;;9178096;19;20439;-68
2023/01/19 11:02:35;;;;;;;15.82;2.08;;;6.10;88.60;;;;;;9173910;19;20010;-66
2023/01/19 11:05:40;;;;;;;10.32;1.90;;;6.20;88.60;;;;;;9177651;19;20014;-66
2023/01/19 11:08:44;;;;;;;17.58;2.13;;;6.20;88.50;;;;;;9173283;19;20029;-67
2023/01/19 11:11:51;;;;;;;11.30;1.70;;;6.20;88.50;;;;;;9173204;19;20029;-67
2023/01/19 11:14:53;;;;;;;8.52;1.73;;;6.20;88.70;;;;;;9174580;19;20428;-67
2023/01/19 11:18:00;;;;;;;12.23;2.60;;;6.30;88.50;;;;;;9168339;19;20110;-66
2023/01/19 11:21:11;;;;;;;20.40;3.33;;;6.30;88.40;;;;;;9168669;19;20328;-68
2023/01/19 11:24:15;;;;;;;14.63;1.92;;;6.30;88.40;;;;;;9174372;19;20014;-67
2023/01/19 11:27:19;;;;;;;13.73;1.90;;;6.40;88.40;;;;;;9171283;19;20051;-67
2023/01/19 11:30:25;;;;;;;19.83;3.28;;;6.40;88.40;;;;;;9161743;19;20014;-67
2023/01/19 11:33:47;;;;;;;7.75;0.93;;;6.40;88.30;;;;;;9172433;19;20033;-68
2023/01/19 11:37:22;;;;;;;11.77;1.65;;;6.40;88.20;;;;;;9172857;19;20015;-67
2023/01/19 11:40:23;;;;;;;10.13;2.20;;;6.50;88.20;;;;;;9169227;19;20018;-67
2023/01/19 11:43:29;;;;;;;13.73;2.00;;;6.50;88.10;;;;;;9164016;19;20018;-67
2023/01/19 11:46:47;;;;;;;13.00;2.08;;;6.50;88.00;;;;;;9171059;19;20018;-68
2023/01/19 11:50:01;;;;;;;12.20;2.00;;;6.50;88.00;;;;;;9169725;19;20014;-67
2023/01/19 11:53:15;;;;;;;17.00;2.42;;;6.60;88.00;;;;;;9169873;19;20085;-68
2023/01/19 11:56:24;;;;;;;3.90;1.50;;;6.60;87.90;;;;;;9171264;19;20011;-68
2023/01/19 11:59:26;;;;;;;13.90;2.58;;;6.70;87.90;;;;;;9173618;19;20018;-66
2023/01/19 12:02:44;;;;;;;13.20;2.58;;;6.60;87.70;;;;;;9161826;19;20020;-66
2023/01/19 12:05:48;;;;;;;11.88;2.05;;;6.70;87.70;;;;;;9167157;19;20029;-67
2023/01/19 12:08:55;;;;;;;10.52;2.60;;;6.70;87.70;;;;;;9181362;19;20018;-66
2023/01/19 12:12:02;;;;;;;17.77;1.92;;;6.60;87.60;;;;;;9172611;19;20840;-66
2023/01/19 12:15:22;;;;;;;11.70;3.53;;;6.60;87.50;;;;;;9176138;19;20015;-67
2023/01/19 12:18:28;;;;;;;6.95;1.40;;;6.60;87.50;;;;;;9172531;19;20377;-67
2023/01/19 12:21:32;;;;;;;13.80;1.70;;;6.60;87.50;;;;;;9177258;19;20026;-66
2023/01/19 12:24:43;;;;;;;17.90;1.70;;;6.60;87.40;;;;;;9177089;19;20018;-67
2023/01/19 12:27:48;;;;;;;11.47;1.97;;;6.60;87.40;;;;;;9173648;19;20018;-67
2023/01/19 12:30:50;;;;;;;17.98;1.80;;;6.60;87.40;;;;;;9175574;19;20388;-67
2023/01/19 12:33:55;;;;;;;9.85;1.65;;;6.60;87.30;;;;;;9176730;19;20011;-66
2023/01/19 12:37:02;;;;;;;13.27;1.83;;;6.60;87.30;;;;;;9178030;19;20014;-67
2023/01/19 12:40:30;;;;;;;6.72;1.50;;;6.60;87.20;;;;;;9174463;19;20578;-68
2023/01/19 12:43:31;;;;;;;11.75;2.05;;;6.60;87.10;;;;;;9174134;19;20038;-67
2023/01/19 12:46:37;;;;;;;13.73;1.50;;;6.50;87.10;;;;;;9179996;19;20018;-68
2023/01/19 12:50:05;;;;;;;15.45;1.90;;;6.50;87.00;;;;;;9175768;19;20022;-68
2023/01/19 12:53:18;;;;;;;12.77;1.70;;;6.50;86.90;;;;;;9180545;19;20025;-67
2023/01/19 12:56:38;;;;;;;8.55;1.90;;;6.50;87.00;;;;;;9173144;19;20041;-67
2023/01/19 12:59:42;;;;;;;13.10;1.92;;;6.50;87.00;;;;;;9173307;19;20019;-67
2023/01/19 13:02:46;;;;;;;16.73;2.15;;;6.50;87.00;;;;;;9176169;19;20030;-67
2023/01/19 13:05:55;;;;;;;12.10;1.75;;;6.50;87.00;;;;;;9173671;19;20018;-67
2023/01/19 13:08:59;;;;;;;12.77;2.00;;;6.50;87.00;;;;;;9178362;19;20018;-67
2023/01/19 13:12:22;;;;;;;7.22;1.13;;;6.50;86.90;;;;;;9164964;19;20011;-67
2023/01/19 13:15:34;;;;;;;8.98;1.58;;;6.40;86.80;;;;;;9168033;19;20450;-67
2023/01/19 13:18:40;;;;;;;11.40;2.63;;;6.50;86.80;;;;;;9163750;19;20011;-67
2023/01/19 13:21:53;;;;;;;15.70;2.03;;;6.50;86.80;;;;;;9174204;19;20495;-67
2023/01/19 13:25:12;;;;;;;6.82;1.50;;;6.50;86.80;;;;;;9171825;19;20019;-67
2023/01/19 13:28:17;;;;;;;16.88;2.13;;;6.50;86.70;;;;;;9172775;19;20383;-67
2023/01/19 13:31:22;;;;;;;7.05;1.48;;;6.50;86.70;;;;;;9171451;19;20022;-67
2023/01/19 13:34:26;;;;;;;8.37;2.23;;;6.50;86.70;;;;;;9168420;19;20086;-67
2023/01/19 13:37:37;;;;;;;7.70;1.67;;;6.60;86.70;;;;;;9170904;19;20025;-67
2023/01/19 13:40:39;;;;;;;9.35;1.90;;;6.50;86.50;;;;;;9168273;19;20018;-67
2023/01/19 13:43:44;;;;;;;8.15;1.05;;;6.60;86.50;;;;;;9167614;19;20010;-67
2023/01/19 13:46:47;;;;;;;13.00;1.27;;;6.60;86.40;;;;;;9164588;19;20475;-67
2023/01/19 13:49:55;;;;;;;10.25;1.73;;;6.60;86.30;;;;;;9169913;19;20724;-67
2023/01/19 13:52:58;;;;;;;10.25;2.00;;;6.60;86.20;;;;;;9168863;19;20018;-68
2023/01/19 13:56:15;;;;;;;13.02;1.60;;;6.60;86.20;;;;;;9167155;19;20356;-67
2023/01/19 13:59:16;;;;;;;5.88;1.08;;;6.60;86.10;;;;;;9171187;19;20018;-67
2023/01/19 14:02:20;;;;;;;7.28;1.13;;;6.60;86.00;;;;;;9163813;19;20015;-68
2023/01/19 14:05:26;;;;;;;6.90;0.95;;;6.60;85.90;;;;;;9167771;19;20022;-68
2023/01/19 14:08:31;;;;;;;5.47;1.52;;;6.60;85.80;;;;;;9166502;19;20021;-67
2023/01/19 14:11:33;;;;;;;9.80;1.48;;;6.60;85.70;;;;;;9162453;19;20022;-67
2023/01/19 14:14:37;;;;;;;12.80;2.25;;;6.60;85.60;;;;;;9164136;19;20013;-67
2023/01/19 14:17:40;;;;;;;5.15;1.52;;;6.50;85.50;;;;;;9166902;19;20113;-67
2023/01/19 14:21:07;;;;;;;6.90;1.20;;;6.50;85.50;;;;;;9165248;19;20018;-67
2023/01/19 14:24:16;;;;;;;11.70;1.40;;;6.50;85.30;;;;;;9169182;19;20037;-67
2023/01/19 14:27:23;;;;;;;6.85;2.03;;;6.50;85.30;;;;;;9165802;19;20025;-67
2023/01/19 14:30:25;;;;;;;9.35;1.67;;;6.50;85.30;;;;;;9166188;19;20019;-67
2023/01/19 14:33:44;;;;;;;8.80;1.50;;;6.50;85.30;;;;;;9166517;19;20623;-67
2023/01/19 14:36:50;;;;;;;5.90;1.48;;;6.50;85.20;;;;;;9166855;19;20025;-67
2023/01/19 14:39:59;;;;;;;5.70;1.10;;;6.50;85.20;;;;;;9173396;19;20010;-67
2023/01/19 14:43:05;;;;;;;8.68;1.63;;;6.40;85.10;;;;;;9168585;19;20051;-67
2023/01/19 14:46:18;;;;;;;12.88;2.00;;;6.40;85.00;;;;;;9168209;19;20010;-67
2023/01/19 14:49:33;;;;;;;11.32;1.50;;;6.40;84.90;;;;;;9165548;19;20046;-67
2023/01/19 14:52:40;;;;;;;5.97;1.20;;;6.40;84.90;;;;;;9161807;19;20039;-67
2023/01/19 14:55:54;;;;;;;4.60;1.48;;;6.40;84.80;;;;;;9169121;19;20468;-67
2023/01/19 14:59:00;;;;;;;5.30;1.52;;;6.40;84.80;;;;;;9163223;19;20007;-67
2023/01/19 15:02:01;;;;;;;7.95;1.63;;;6.30;84.70;;;;;;9171031;19;20027;-67
2023/01/19 15:05:07;;;;;;;8.63;1.35;;;6.30;84.70;;;;;;9162504;19;20026;-67
2023/01/19 15:08:18;;;;;;;8.82;1.80;;;6.30;84.60;;;;;;9165912;19;20025;-67
2023/01/19 15:11:29;;;;;;;10.00;2.30;;;6.30;84.50;;;;;;9163179;19;20012;-67
2023/01/19 15:14:31;;;;;;;10.95;2.30;;;6.30;84.50;;;;;;9170820;19;20067;-67
2023/01/19 15:17:35;;;;;;;10.98;2.38;;;6.30;84.50;;;;;;9166780;19;20017;-67
2023/01/19 15:20:36;;;;;;;9.32;1.98;;;6.20;84.40;;;;;;9162841;19;20033;-66
2023/01/19 15:23:40;;;;;;;6.75;2.78;;;6.20;84.40;;;;;;9166961;19;20026;-67
2023/01/19 15:26:42;;;;;;;6.22;1.52;;;6.20;84.40;;;;;;9162426;19;20022;-67
2023/01/19 15:29:45;;;;;;;;;;;6.10;84.40;;;;;;9164952;19;20026;-67
2023/01/19 15:32:47;;;;;;;8.25;2.25;;;6.10;84.40;;;;;;9163748;19;20356;-66
2023/01/19 15:35:51;;;;;;;4.55;1.38;;;6.10;84.40;;;;;;9162995;19;20708;-66
2023/01/19 15:38:54;;;;;;;5.35;1.02;;;6.00;84.30;;;;;;9166709;19;20014;-67
2023/01/19 15:41:58;;;;;;;3.92;1.17;;;6.00;84.30;;;;;;9170533;19;20017;-67
2023/01/19 15:45:00;;;;;;;7.85;1.20;;;5.90;84.20;;;;;;9171585;19;20858;-67
2023/01/19 15:48:06;;;;;;;12.10;1.80;;;5.90;84.20;;;;;;9176472;19;20478;-66
2023/01/19 15:51:12;;;;;;;11.52;3.95;;;5.80;84.20;;;;;;9175158;19;20019;-66
2023/01/19 15:54:16;;;;;;;8.60;2.10;;;5.80;84.10;;;;;;9180845;19;20023;-66
2023/01/19 15:57:17;;;;;;;5.97;1.52;;;5.70;84.10;;;;;;9182761;19;20014;-66
2023/01/19 16:00:21;;;;;;;6.18;1.77;;;5.70;84.10;;;;;;9184393;19;20018;-66
2023/01/19 16:03:24;;;;;;;10.52;2.33;;;5.60;84.10;;;;;;9179078;19;20519;-67
2023/01/19 16:06:29;;;;;;;9.88;2.58;;;5.60;84.10;;;;;;9182732;19;20022;-66
2023/01/19 16:09:30;;;;;;;10.75;2.15;;;5.50;84.10;;;;;;9181206;19;20037;-66
2023/01/19 16:12:34;;;;;;;8.23;2.40;;;5.50;84.10;;;;;;9182937;19;20522;-66
2023/01/19 16:15:37;;;;;;;10.80;2.35;;;5.40;84.10;;;;;;9183699;19;20046;-66
2023/01/19 16:18:41;;;;;;;11.80;2.35;;;5.40;84.10;;;;;;9179788;19;20355;-66
2023/01/19 16:21:43;;;;;;;11.27;2.65;;;5.30;84.00;;;;;;9183053;19;20538;-67